Ixworth, United Kingdom
Current Conditions -  °F | °C
As of 1:58 PM on Sunday 23 Nov 2014 (Local Time) from EGUL Reporting Station
Moderate Rain Moderate Rain  
Wind Chill: 39°   Ceiling: 4300
Heat Index: 45°   Visibility: 6mi
Dew Point: 45°   Wind: 10mph
Humidity: 100%   Direction: 340°NNW
Pressure: 29.99"   Gusts: NA
Location:  52.3°N, 0.83°E
Report Text: EGUL 231358Z AUTO 34009KT 9999 RA FEW032 OVC043 07/07 A2999 RMK AO2 CIG 031 RWY24 SLP159 P0020 T00700070
Loading
Personal Weather Stations






























Interactive Weather Map New forecast layout! Learn more

10-Day Weather Forecast

Advertisements
Track Severe Weather on mobile